Houston, Texas
Current Conditions -  °F | °C
As of 9:15 AM on Monday 24 Nov 2014 (Local Time) from KMCJ Reporting Station
Clear Clear  
Wind Chill: 55°   Ceiling: Unl
Heat Index: 55°   Visibility: 10mi
Dew Point: 34°   Wind: 17mph
Humidity: 44%   Direction: 350°N
Pressure: 30.01"   Gusts: 23mph
Location:  29.76°N, 95.37°W
Report Text: KMCJ 241515Z AUTO 35015G20KT 040V010 10SM CLR 13/01 A3001 RMK AO1
Loading
Personal Weather Stations






























Interactive Weather Map New forecast layout! Learn more

10-Day Weather Forecast

Advertisements
Track Severe Weather on mobile